Weather at Salt Lake City International Airport

Public forecast

Using degrees Fahrenheit for public forecast. Weather courtesy of forecast.io.

Current aviation weather report (METAR) for Salt Lake City International Airport

Retrieved 2021/04/11 08:54 UTC (53 minutes ago):

KSLC 110854Z 36012KT 10SM CLR 08/M04 A2989 RMK AO2 SLP092 T00781044 51020

Aviation forecast (TAF) for Salt Lake City International Airport

Retrieved 2021/04/11 06:22 UTC (3 hours ago):

TAF KSLC 110520Z 1106/1212 33009KT P6SM SKC TEMPO 1106/1108 33014G21KT P6SM SKC FM120300 17005KT P6SM SKC